Time;durP1;ratioP1;P1;durP2;ratioP2;P2;SDS_P1;SDS_P2;PMS_P1;PMS_P2;Temp;Humidity;BMP_temperature;BMP_pressure;BME280_temperature;BME280_humidity;BME280_pressure;Samples;Min_cycle;Max_cycle;Signal;HPM_P1;HPM_P2
2021/01/19 00:15:06;;;;;;;44.72;21.17;;;-0.30;99.90;;;;;;2689003;28;20148;-89
2021/01/19 01:56:12;;;;;;;21.45;12.70;;;0.50;99.90;;;;;;834153;28;20395;-88
2021/01/19 02:28:13;;;;;;;25.88;14.48;;;0.70;99.90;;;;;;828157;29;20421;-88
2021/01/19 03:17:47;;;;;;;17.17;10.00;;;1.00;99.90;;;;;;675070;28;21781;-89
2021/01/19 04:21:40;;;;;;;15.48;8.40;;;1.20;99.90;;;;;;667014;28;21847;-87
2021/01/19 04:24:41;;;;;;;13.20;8.40;;;1.20;99.90;;;;;;671534;28;21867;-87
2021/01/19 04:48:46;;;;;;;17.95;9.50;;;1.20;99.90;;;;;;672485;28;22332;-86
2021/01/19 05:16:37;;;;;;;18.58;9.93;;;1.30;99.90;;;;;;675069;28;21852;-86
2021/01/19 05:48:13;;;;;;;13.07;8.68;;;1.40;99.90;;;;;;667320;29;21781;-87
2021/01/19 06:16:09;;;;;;;23.05;10.98;;;1.50;99.90;;;;;;668683;29;21836;-88
2021/01/19 08:56:39;;;;;;;16.98;11.12;;;2.60;99.90;;;;;;669190;29;22002;-89
2021/01/19 09:06:44;;;;;;;19.60;10.27;;;2.80;99.90;;;;;;669773;29;21819;-88
2021/01/19 09:09:32;;;;;;;21.23;10.48;;;2.80;99.90;;;;;;666862;29;21948;-86
2021/01/19 09:12:33;;;;;;;22.42;11.20;;;2.80;99.90;;;;;;663353;29;21840;-87
2021/01/19 09:15:18;;;;;;;22.67;10.98;;;2.90;99.90;;;;;;605061;29;21859;-88
2021/01/19 10:05:01;;;;;;;18.92;10.82;;;3.20;99.90;;;;;;669032;29;21870;-89
2021/01/19 10:14:55;;;;;;;19.50;12.52;;;3.40;99.90;;;;;;727882;29;21981;-91
2021/01/19 10:21:33;;;;;;;19.05;12.10;;;3.40;99.90;;;;;;667259;29;21942;-87
2021/01/19 10:48:34;;;;;;;24.45;14.07;;;3.70;99.90;;;;;;667390;29;21807;-89
2021/01/19 11:02:05;;;;;;;15.45;9.18;;;3.80;99.90;;;;;;664228;29;21881;-89
2021/01/19 11:05:14;;;;;;;13.05;8.40;;;3.90;99.90;;;;;;667772;29;21855;-90
2021/01/19 11:27:28;;;;;;;15.23;10.02;;;3.90;99.90;;;;;;665575;29;21893;-89
2021/01/19 12:16:34;;;;;;;16.60;9.95;;;3.90;99.90;;;;;;736988;28;20402;-89
2021/01/19 12:41:16;;;;;;;16.12;11.30;;;3.80;99.90;;;;;;1881911;29;20524;-90
2021/01/19 12:44:05;;;;;;;13.57;10.57;;;3.70;99.90;;;;;;1930311;29;20299;-88
2021/01/19 12:47:12;;;;;;;13.88;9.93;;;3.70;99.90;;;;;;1855915;29;20395;31
2021/01/19 12:50:04;;;;;;;15.32;10.75;;;3.70;99.90;;;;;;1856751;29;20549;-89
2021/01/19 12:53:08;;;;;;;13.38;9.75;;;3.70;99.90;;;;;;1950102;29;20602;-89
2021/01/19 12:56:16;;;;;;;19.05;10.73;;;3.60;99.90;;;;;;1884107;29;20504;-89
2021/01/19 12:59:26;;;;;;;16.08;10.25;;;3.60;99.90;;;;;;1852953;29;21797;-90
2021/01/19 13:02:18;;;;;;;17.37;10.60;;;3.60;99.90;;;;;;1885112;29;20529;-90
2021/01/19 13:05:26;;;;;;;;;;;3.50;99.90;;;;;;1889605;29;20525;-90
2021/01/19 13:08:14;;;;;;;16.55;10.57;;;3.50;99.90;;;;;;1988401;29;20157;-91
2021/01/19 13:14:07;;;;;;;17.98;11.52;;;3.50;99.90;;;;;;1365361;29;21771;-90
2021/01/19 13:17:16;;;;;;;15.43;10.98;;;3.50;99.90;;;;;;1883680;29;20517;-91
2021/01/19 13:20:08;;;;;;;16.25;10.25;;;3.50;99.90;;;;;;1887652;29;21536;-91
2021/01/19 13:23:16;;;;;;;;;;;3.40;99.90;;;;;;1906306;28;20529;-91
2021/01/19 13:26:03;;;;;;;14.87;9.02;;;3.30;99.90;;;;;;1959646;28;20055;-91
2021/01/19 13:29:05;;;;;;;14.48;8.48;;;3.30;99.90;;;;;;1953208;29;20182;-92
2021/01/19 13:32:01;;;;;;;13.07;9.35;;;3.30;99.90;;;;;;1932157;29;20115;-92
2021/01/19 13:35:04;;;;;;;14.43;8.48;;;3.20;99.90;;;;;;1964785;29;20187;-91
2021/01/19 13:37:47;;;;;;;13.25;9.45;;;3.20;99.90;;;;;;1978761;28;20170;-93
2021/01/19 13:40:45;;;;;;;14.83;10.10;;;3.20;99.90;;;;;;1792635;28;21821;-92
2021/01/19 13:43:38;;;;;;;15.10;9.73;;;3.20;99.90;;;;;;1924961;29;20268;-92
2021/01/19 13:46:47;;;;;;;17.10;10.13;;;3.20;99.90;;;;;;1896085;29;20544;-92
2021/01/19 13:49:49;;;;;;;16.48;10.73;;;3.20;99.90;;;;;;1972536;28;20179;-92
2021/01/19 13:52:49;;;;;;;16.85;10.30;;;3.20;99.90;;;;;;1960341;29;20163;-92
2021/01/19 13:55:38;;;;;;;16.75;10.68;;;3.10;99.90;;;;;;1894553;29;20503;-92
2021/01/19 13:58:46;;;;;;;18.62;9.98;;;3.10;99.90;;;;;;2045737;29;20978;-92
2021/01/19 14:01:37;;;;;;;17.87;11.07;;;3.10;99.90;;;;;;1959090;29;20191;-92
2021/01/19 14:04:44;;;;;;;30.75;13.62;;;3.10;99.90;;;;;;1889361;29;20580;-92
2021/01/19 14:07:44;;;;;;;17.90;11.70;;;3.10;99.90;;;;;;1947705;29;20176;-91
2021/01/19 14:10:38;;;;;;;20.27;11.18;;;3.10;99.90;;;;;;1884862;29;21791;-91
2021/01/19 14:13:48;;;;;;;15.50;8.43;;;3.10;99.90;;;;;;2781091;29;20426;-92
2021/01/19 14:16:56;;;;;;;21.02;8.88;;;3.00;99.90;;;;;;1948184;29;20205;-92
2021/01/19 14:19:51;;;;;;;20.10;10.43;;;3.00;99.90;;;;;;2114834;29;20641;-88
2021/01/19 14:22:58;;;;;;;18.52;12.13;;;2.90;99.90;;;;;;1860947;30;20516;-91
2021/01/19 14:25:50;;;;;;;18.95;9.73;;;2.90;99.90;;;;;;1858648;29;20494;-90
2021/01/19 14:28:58;;;;;;;;;;;2.90;99.90;;;;;;1849393;29;21685;-91
2021/01/19 14:31:50;;;;;;;15.13;8.75;;;2.90;99.90;;;;;;1859818;29;20399;-91
2021/01/19 14:34:58;;;;;;;15.43;9.15;;;2.90;99.90;;;;;;1869722;29;20564;-91
2021/01/19 14:38:05;;;;;;;17.90;8.20;;;2.80;99.90;;;;;;1876271;29;20593;-91
2021/01/19 14:41:06;;;;;;;16.37;8.18;;;2.80;99.90;;;;;;1896073;29;21688;-90
2021/01/19 14:44:01;;;;;;;18.00;9.27;;;2.80;99.90;;;;;;1885304;29;21737;-91
2021/01/19 14:47:13;;;;;;;17.30;7.50;;;2.80;99.90;;;;;;1895000;29;20787;-90
2021/01/19 14:50:11;;;;;;;14.70;7.90;;;2.80;99.90;;;;;;1896344;29;21668;-90
2021/01/19 14:53:15;;;;;;;16.50;8.70;;;2.80;99.90;;;;;;2019567;29;20155;-91
2021/01/19 14:55:57;;;;;;;15.55;7.97;;;2.80;99.90;;;;;;1949867;29;20554;-91
2021/01/19 14:59:01;;;;;;;13.70;8.15;;;2.80;99.90;;;;;;1881382;29;20604;-91
2021/01/19 15:01:53;;;;;;;14.82;8.55;;;2.80;99.90;;;;;;1881858;29;22989;-90
2021/01/19 15:04:55;;;;;;;;;;;2.70;99.90;;;;;;726297;29;20414;-90
2021/01/19 15:07:56;;;;;;;12.45;7.90;;;2.70;99.90;;;;;;1398135;29;20317;-89
2021/01/19 15:11:02;;;;;;;16.90;7.87;;;2.70;99.90;;;;;;1373465;29;20437;-90
2021/01/19 15:16:21;;;;;;;17.42;8.07;;;2.60;99.90;;;;;;1856381;29;22345;31
2021/01/19 15:19:21;;;;;;;15.57;8.55;;;2.60;99.90;;;;;;1979006;29;21061;-90
2021/01/19 15:22:09;;;;;;;14.37;7.63;;;2.60;99.90;;;;;;1862820;29;20453;31
2021/01/19 15:25:12;;;;;;;15.45;7.53;;;2.50;99.90;;;;;;1891116;29;20672;-90
2021/01/19 15:27:58;;;;;;;16.92;7.45;;;2.50;99.90;;;;;;2058842;29;20573;-91
2021/01/19 15:31:03;;;;;;;15.60;8.15;;;2.50;99.90;;;;;;1874833;29;21827;-90
2021/01/19 15:34:09;;;;;;;14.13;7.85;;;2.40;99.90;;;;;;1844739;29;20440;31
2021/01/19 15:37:13;;;;;;;18.67;8.65;;;2.50;99.90;;;;;;1985487;29;20167;-90
2021/01/19 15:40:18;;;;;;;16.58;8.40;;;2.40;99.90;;;;;;1870170;29;20553;-91
2021/01/19 15:43:25;;;;;;;18.23;8.52;;;2.40;99.90;;;;;;1885147;29;20514;-90
2021/01/19 15:46:34;;;;;;;15.35;9.00;;;2.40;99.90;;;;;;1888258;29;20583;-90
2021/01/19 15:49:35;;;;;;;16.27;7.93;;;2.40;99.90;;;;;;1949203;29;20199;-90
2021/01/19 15:52:39;;;;;;;15.30;7.87;;;2.40;99.90;;;;;;1896804;28;20534;-91
2021/01/19 15:55:45;;;;;;;16.17;7.65;;;2.40;99.90;;;;;;1883755;29;20620;-89
2021/01/19 16:13:08;;;;;;;11.98;6.43;;;2.80;99.90;;;;;;818999;29;20424;-91
2021/01/19 16:16:00;;;;;;;11.80;7.28;;;2.80;99.90;;;;;;1899375;29;21253;-91
2021/01/19 16:19:11;;;;;;;14.00;6.62;;;2.80;99.90;;;;;;1969802;28;20197;-90
2021/01/19 16:22:17;;;;;;;12.70;7.70;;;2.70;99.90;;;;;;1937299;29;21734;-90
2021/01/19 16:25:22;;;;;;;10.77;6.35;;;2.70;99.90;;;;;;1938018;29;20126;-90
2021/01/19 16:28:30;;;;;;;13.02;5.97;;;2.60;99.90;;;;;;1940644;28;20679;-91
2021/01/19 16:31:33;;;;;;;10.02;5.15;;;2.60;99.90;;;;;;1968434;28;20180;-91
2021/01/19 16:34:15;;;;;;;9.88;4.25;;;2.60;99.90;;;;;;1936019;28;20580;-91
2021/01/19 16:37:21;;;;;;;9.76;4.52;;;2.50;99.90;;;;;;1934658;29;20220;-90
2021/01/19 16:40:09;;;;;;;12.77;5.03;;;2.40;99.90;;;;;;1955131;29;20224;-91
2021/01/19 16:43:13;;;;;;;8.43;5.05;;;2.30;99.90;;;;;;1890008;29;20512;-91
2021/01/19 16:46:21;;;;;;;10.05;5.65;;;2.20;99.90;;;;;;1894623;28;21804;-92
2021/01/19 16:49:27;;;;;;;11.30;5.40;;;2.10;99.90;;;;;;1994242;28;21012;-91
2021/01/19 16:52:10;;;;;;;8.88;5.18;;;2.00;99.90;;;;;;1959098;28;20245;-93
2021/01/19 16:55:16;;;;;;;11.77;4.97;;;1.90;99.90;;;;;;1883604;29;20582;-92
2021/01/19 16:58:10;;;;;;;8.52;5.68;;;1.90;99.90;;;;;;1892823;29;21899;-91
2021/01/19 17:01:17;;;;;;;10.90;6.07;;;1.80;99.90;;;;;;1857275;29;20598;-90
2021/01/19 17:04:06;;;;;;;13.20;6.70;;;1.80;99.90;;;;;;1859389;29;20534;-90
2021/01/19 17:07:14;;;;;;;13.62;6.57;;;1.80;99.90;;;;;;1866788;29;20495;-87
2021/01/19 17:10:21;;;;;;;15.37;7.53;;;1.80;99.90;;;;;;1875663;29;20540;-91
2021/01/19 17:13:23;;;;;;;14.63;6.87;;;1.80;99.90;;;;;;1926645;29;20198;-90
2021/01/19 17:16:15;;;;;;;18.23;8.13;;;1.70;99.90;;;;;;1881916;29;20532;-91
2021/01/19 17:19:13;;;;;;;15.02;6.68;;;1.70;99.90;;;;;;1932489;29;20196;-91
2021/01/19 17:22:04;;;;;;;17.80;8.10;;;1.70;99.90;;;;;;1883757;29;20616;-91
2021/01/19 17:25:12;;;;;;;17.33;9.73;;;1.70;99.90;;;;;;1896006;29;20503;-91
2021/01/19 17:28:04;;;;;;;24.83;11.52;;;1.70;99.90;;;;;;1985649;29;20153;-92
2021/01/19 17:31:02;;;;;;;19.33;10.80;;;1.70;99.90;;;;;;2033339;29;20163;-91
2021/01/19 17:34:06;;;;;;;16.00;8.27;;;1.70;99.90;;;;;;1877011;29;20508;-91
2021/01/19 17:37:18;;;;;;;17.25;7.75;;;1.70;99.90;;;;;;1877607;29;20509;-91
2021/01/19 17:40:05;;;;;;;15.35;7.57;;;1.70;99.90;;;;;;1935098;29;20694;-91
2021/01/19 17:43:06;;;;;;;16.75;7.68;;;1.70;99.90;;;;;;1870962;29;20532;-91
2021/01/19 17:48:39;;;;;;;20.08;9.77;;;1.60;99.90;;;;;;816822;29;20440;-89
2021/01/19 17:51:39;;;;;;;24.48;11.77;;;1.70;99.90;;;;;;1949019;29;20163;-90
2021/01/19 18:03:36;;;;;;;98.43;39.70;;;1.70;99.90;;;;;;2021947;28;20161;-90
2021/01/19 18:09:13;;;;;;;40.15;21.42;;;1.70;99.90;;;;;;1921455;28;20548;-91
2021/01/19 18:12:17;;;;;;;42.95;22.55;;;1.70;99.90;;;;;;2039761;28;20315;-91
2021/01/19 18:15:46;;;;;;;41.85;23.52;;;1.60;99.90;;;;;;1664235;28;20456;-88
2021/01/19 18:18:55;;;;;;;41.52;24.10;;;1.60;99.90;;;;;;1945618;29;20247;-90
2021/01/19 18:21:49;;;;;;;40.88;23.75;;;1.60;99.90;;;;;;1902247;29;20513;-90
2021/01/19 18:25:14;;;;;;;40.05;23.77;;;1.60;99.90;;;;;;1898166;29;20522;-91
2021/01/19 18:28:06;;;;;;;52.55;24.73;;;1.60;99.90;;;;;;1992188;29;20275;-91
2021/01/19 18:33:48;;;;;;;41.90;22.35;;;1.60;99.90;;;;;;1942909;29;20115;-92
2021/01/19 18:37:05;;;;;;;35.30;21.15;;;1.60;99.90;;;;;;1915533;29;20127;-91
2021/01/19 18:39:58;;;;;;;;;;;1.60;99.90;;;;;;2121632;29;20453;31
2021/01/19 18:43:07;;;;;;;37.95;20.92;;;1.60;99.90;;;;;;1921488;29;21573;-92
2021/01/19 18:45:57;;;;;;;38.27;21.77;;;1.60;99.90;;;;;;1954157;29;20191;-91
2021/01/19 18:49:10;;;;;;;46.30;23.45;;;1.60;99.90;;;;;;2126841;29;20997;-91
2021/01/19 18:52:17;;;;;;;54.80;28.77;;;1.60;99.90;;;;;;1891342;29;20527;-89
2021/01/19 18:55:24;;;;;;;54.00;26.37;;;1.70;99.90;;;;;;2064653;29;20433;-91
2021/01/19 18:58:15;;;;;;;55.17;27.23;;;1.70;99.90;;;;;;1888220;29;20517;-92
2021/01/19 19:01:23;;;;;;;53.05;25.77;;;1.70;99.90;;;;;;2019042;29;21137;-91
2021/01/19 19:07:07;;;;;;;45.20;21.92;;;1.70;99.90;;;;;;1926719;29;20126;-91
2021/01/19 19:10:28;;;;;;;30.75;16.67;;;1.70;99.90;;;;;;2143845;28;20458;-91
2021/01/19 19:13:46;;;;;;;30.88;14.43;;;1.80;99.90;;;;;;1913893;28;20564;-90
2021/01/19 19:19:27;;;;;;;17.87;10.70;;;1.90;99.90;;;;;;2008816;29;20442;-90
2021/01/19 19:22:52;;;;;;;19.15;10.90;;;1.90;99.90;;;;;;1888051;29;20497;-91
2021/01/19 19:26:08;;;;;;;16.10;8.57;;;1.90;99.90;;;;;;1892739;28;20590;-90
2021/01/19 19:32:38;;;;;;;18.80;9.63;;;2.00;99.90;;;;;;972585;29;21870;-90
2021/01/19 19:35:46;;;;;;;;;;;2.00;99.90;;;;;;1888321;29;22489;-91
2021/01/19 19:38:54;;;;;;;14.82;7.95;;;2.00;99.90;;;;;;1892687;29;20402;-91
2021/01/19 19:41:58;;;;;;;12.40;7.47;;;2.00;99.90;;;;;;2073897;28;20430;-90
2021/01/19 19:44:49;;;;;;;12.13;7.68;;;2.00;99.90;;;;;;1913483;28;20513;-91
2021/01/19 19:48:01;;;;;;;12.95;7.22;;;2.00;99.90;;;;;;1936150;28;20116;-90
2021/01/19 19:51:04;;;;;;;11.32;6.78;;;2.00;99.90;;;;;;1886645;29;20516;-90
2021/01/19 19:54:14;;;;;;;11.73;7.28;;;2.00;99.90;;;;;;1878814;29;21801;-90
2021/01/19 19:57:06;;;;;;;11.50;6.90;;;2.10;99.90;;;;;;1887585;29;21228;-90
2021/01/19 20:00:17;;;;;;;10.90;6.25;;;2.10;99.90;;;;;;1972621;29;20128;-91
2021/01/19 20:03:22;;;;;;;11.77;6.30;;;2.10;99.90;;;;;;1885708;29;20512;-91
2021/01/19 20:06:09;;;;;;;10.76;5.64;;;2.10;99.90;;;;;;1938570;29;20243;-91
2021/01/19 20:09:08;;;;;;;12.55;6.15;;;2.10;99.90;;;;;;1895189;29;20465;-92
2021/01/19 20:11:54;;;;;;;11.52;6.18;;;2.10;99.90;;;;;;1923377;29;20169;-91
2021/01/19 20:15:00;;;;;;;12.05;7.25;;;2.10;99.90;;;;;;1876690;29;21176;-90
2021/01/19 20:17:48;;;;;;;17.90;8.95;;;2.20;99.90;;;;;;2001590;29;21034;-91
2021/01/19 20:20:53;;;;;;;14.48;8.02;;;2.20;99.90;;;;;;1881895;29;21835;-90
2021/01/19 20:23:57;;;;;;;14.50;7.28;;;2.20;99.90;;;;;;1979377;29;20219;-93
2021/01/19 20:27:03;;;;;;;15.40;8.48;;;2.10;99.90;;;;;;1872776;29;20521;-92
2021/01/19 20:29:54;;;;;;;12.16;6.98;;;2.20;99.90;;;;;;1843584;29;21082;-93
2021/01/19 20:32:56;;;;;;;15.65;8.18;;;2.20;99.90;;;;;;1973832;29;20182;-94
2021/01/19 20:35:45;;;;;;;14.55;8.75;;;2.20;99.90;;;;;;1884615;29;20535;-93
2021/01/19 20:38:48;;;;;;;13.93;8.20;;;2.20;99.90;;;;;;1945649;29;20194;-93
2021/01/19 20:41:36;;;;;;;11.18;7.03;;;2.20;99.90;;;;;;2147111;29;20521;-94
2021/01/19 20:44:39;;;;;;;14.15;7.65;;;2.20;99.90;;;;;;2049642;29;20491;-91
2021/01/19 20:47:44;;;;;;;13.32;8.68;;;2.20;99.90;;;;;;1880760;29;20510;-92
2021/01/19 20:50:49;;;;;;;14.63;7.85;;;2.20;99.90;;;;;;1985628;29;20202;-93
2021/01/19 20:53:38;;;;;;;11.65;8.05;;;2.20;99.90;;;;;;1871083;29;20580;-91
2021/01/19 20:56:47;;;;;;;11.05;7.07;;;2.20;99.90;;;;;;1874685;29;20522;-91
2021/01/19 20:59:39;;;;;;;10.95;7.65;;;2.30;99.90;;;;;;1877377;29;20581;-92
2021/01/19 21:02:48;;;;;;;12.70;7.05;;;2.30;99.90;;;;;;1881506;29;21639;-91
2021/01/19 21:05:41;;;;;;;10.68;6.45;;;2.30;99.90;;;;;;1890331;29;20623;-92
2021/01/19 21:08:43;;;;;;;15.40;6.37;;;2.30;99.90;;;;;;1911262;29;20131;-91
2021/01/19 21:11:30;;;;;;;10.95;7.00;;;2.30;99.90;;;;;;1941189;29;20239;-91
2021/01/19 21:14:31;;;;;;;11.32;6.35;;;2.30;99.90;;;;;;1985390;29;20159;-91
2021/01/19 21:17:21;;;;;;;12.82;7.00;;;2.30;99.90;;;;;;1883970;29;20486;-92
2021/01/19 21:20:32;;;;;;;;;;;2.30;99.90;;;;;;1892876;29;20511;-92
2021/01/19 21:23:26;;;;;;;11.43;6.33;;;2.40;99.90;;;;;;1891097;28;20406;-91
2021/01/19 21:26:40;;;;;;;13.00;6.45;;;2.30;99.90;;;;;;1930788;28;20134;-91
2021/01/19 21:29:26;;;;;;;10.68;6.15;;;2.40;99.90;;;;;;1954006;29;20617;-92
2021/01/19 21:32:36;;;;;;;11.75;6.55;;;2.40;99.90;;;;;;1903467;28;20599;-92
2021/01/19 21:35:41;;;;;;;11.10;5.60;;;2.40;99.90;;;;;;2128804;29;20429;31
2021/01/19 21:38:55;;;;;;;14.75;5.95;;;2.40;99.90;;;;;;1952293;29;20194;-92
2021/01/19 21:42:00;;;;;;;10.88;5.85;;;2.40;99.90;;;;;;1989593;29;20404;-92
2021/01/19 21:45:02;;;;;;;13.75;6.35;;;2.40;99.90;;;;;;1948989;29;20188;-92
2021/01/19 21:48:10;;;;;;;10.40;6.22;;;2.40;99.90;;;;;;1970445;29;20177;-93
2021/01/19 21:54:30;;;;;;;12.45;7.35;;;2.50;99.90;;;;;;3051465;29;21633;-94
2021/01/19 21:57:37;;;;;;;13.32;7.47;;;2.50;99.90;;;;;;3366835;30;20169;-93
2021/01/19 22:00:49;;;;;;;12.77;7.65;;;2.50;99.90;;;;;;1986307;29;20528;-92
2021/01/19 22:03:52;;;;;;;12.70;7.53;;;2.50;99.90;;;;;;1976716;29;21350;-91
2021/01/19 22:09:03;;;;;;;13.32;6.97;;;2.50;99.90;;;;;;2019833;29;20227;-90
2021/01/19 22:15:13;;;;;;;17.08;9.23;;;2.50;99.90;;;;;;2823240;28;20445;-91
2021/01/19 22:21:14;;;;;;;15.27;9.18;;;2.50;99.90;;;;;;3207454;28;20238;31
2021/01/19 22:24:34;;;;;;;16.50;9.10;;;2.50;99.90;;;;;;2059772;29;20390;-91
2021/01/19 22:28:06;;;;;;;;;;;;;;;;;;;;;
2021/01/19 22:31:28;;;;;;;19.55;10.25;;;2.50;99.90;;;;;;3352370;29;20413;31
2021/01/19 22:34:51;;;;;;;21.12;10.20;;;2.50;99.90;;;;;;3110764;29;20450;-89
2021/01/19 22:51:46;;;;;;;28.00;12.34;;;2.50;99.90;;;;;;2418466;29;20386;-95
2021/01/19 22:54:38;;;;;;;20.60;11.02;;;2.50;99.90;;;;;;2126146;29;20470;31
2021/01/19 22:58:02;;;;;;;18.90;10.38;;;2.40;99.90;;;;;;2355048;29;20439;31
2021/01/19 23:01:29;;;;;;;13.85;8.20;;;2.50;99.90;;;;;;2114848;29;20421;31
2021/01/19 23:08:10;;;;;;;15.43;9.63;;;2.50;99.90;;;;;;2111631;29;21303;31
2021/01/19 23:13:49;;;;;;;14.98;9.20;;;2.50;99.90;;;;;;2127077;29;20443;31
2021/01/19 23:16:51;;;;;;;15.10;9.23;;;2.50;99.90;;;;;;2067336;29;20547;-94
2021/01/19 23:22:31;;;;;;;16.92;10.60;;;2.50;99.90;;;;;;2069334;29;20468;-94
2021/01/19 23:25:21;;;;;;;15.10;8.75;;;2.50;99.90;;;;;;2402621;29;20458;31
2021/01/19 23:28:29;;;;;;;15.30;9.00;;;2.50;99.90;;;;;;2300289;29;20167;-93
2021/01/19 23:31:19;;;;;;;17.15;9.82;;;2.50;99.90;;;;;;2037304;29;20236;-93
2021/01/19 23:34:12;;;;;;;17.55;10.98;;;2.50;99.90;;;;;;2136582;29;20453;-93
2021/01/19 23:37:25;;;;;;;21.10;11.02;;;2.50;99.90;;;;;;2094415;29;20659;-93
2021/01/19 23:42:53;;;;;;;15.48;9.82;;;2.50;99.90;;;;;;1985464;29;21329;-93
2021/01/19 23:46:00;;;;;;;14.90;9.43;;;2.50;99.90;;;;;;2003080;29;20116;-92
2021/01/19 23:49:11;;;;;;;14.60;9.98;;;2.50;99.90;;;;;;1979366;29;20258;-92
2021/01/19 23:52:20;;;;;;;17.50;11.00;;;2.50;99.90;;;;;;1970310;29;21668;-92
2021/01/19 23:57:42;;;;;;;19.37;11.55;;;2.50;99.90;;;;;;1974535;29;20132;-93
